Parcialmente nublado
Parcialmente nublado
Parcialmente nublado
Parcialmente nublado
Parcialmente nublado
Parcialmente nublado
Parcialmente nublado
(°C)
(°C)
-2°
-2°
-2°
-3°
-3°
-3°
-3°
O
ONO
OSO
SO
SO
SO
OSO
(km/h)
5-11
4-8
3-7
4-6
4-5
4-6
4-7
(mm)
0
0
0
0
0
0
0
(%)
2
1
1
1
0
0
0

Elevación del sol

/ -15.9°
sun-icon
UV 0
08:16
16:11
Luna llena (185°)
15:54
08:55

METAR a Bordenau (ETNW)

Hora Condiciones Temperatura/
Punto de condensación
Viento Visibilidad Tiempo Nubes Presión Cambiar Bruto
VFR 2°C / 1°C 260º 3kt >10km - Few Clouds 1200ft
Scattered Clouds 11000ft
1006 Temporary: Hail . ETNW 081620Z 26003KT 9999 FEW012 SCT110 02/01 Q1006 BLU+BLU TEMPO GRN
VFR 2°C / 2°C 260º 4kt >10km - Few Clouds 1000ft
Broken Clouds 11000ft
1005 Temporary: Hail . ETNW 081520Z 26004KT 9999 FEW010 BKN110 02/02 Q1005 BLU BLU TEMPO GRN
VFR 3°C / 2°C 260º 5kt >10km - Scattered Clouds 1000ft
Broken Clouds 11000ft
1005 Temporary: Hail . ETNW 081420Z 26005KT 9999 SCT010 BKN110 03/02 Q1005 BLU BLU TEMPO GRN
VFR 3°C / 2°C 260º 6kt >10km - Scattered Clouds 1000ft
Broken Clouds 11000ft
1005 Temporary: Hail . ETNW 081400Z 26006KT 9999 SCT010 BKN110 03/02 Q1005 BLU BLU TEMPO GRN
MVFR 3°C / 2°C 280º 6kt >10km - Broken Clouds 1000ft
Broken Clouds 11000ft
1005 Temporary: Hail . ETNW 081345Z 28006KT 9999 BKN010 BKN110 03/02 Q1005 GRN BLU TEMPO GRN
VFR 3°C / 2°C 280º 7kt >10km - Scattered Clouds 1200ft
Broken Clouds 11000ft
1005 - ETNW 081320Z 28007KT 9999 SCT012 BKN110 03/02 Q1005 BLU BLU
MVFR 4°C / 2°C 260º 7kt >10km - Few Clouds 900ft
Broken Clouds 1200ft
Broken Clouds 10000ft
1005 Temporary: YLO ETNW 081220Z 26007KT 9999 FEW009 BKN012 BKN100 04/02 Q1005 GRN BLU TEMPO YLO
MVFR 4°C / 2°C 280º 8kt >10km - Few Clouds 700ft
Broken Clouds 1100ft
Broken Clouds 7000ft
1005 Temporary: YLO ETNW 081120Z 28008KT 9999 FEW007 BKN011 BKN070 04/02 Q1005 GRN BLU TEMPO YLO
MVFR 3°C / 2°C 260º 9kt >10km - Few Clouds 700ft
Broken Clouds 1000ft
1005 Temporary: YLO ETNW 081020Z 26009KT 9999 FEW007 BKN010 03/02 Q1005 GRN BLU TEMPO YLO
MVFR 3°C / 2°C 260º 8kt >10km - Few Clouds 700ft
Broken Clouds 1000ft
1005 Temporary: YLO ETNW 081015Z 26008KT 9999 FEW007 BKN010 03/02 Q1005 GRN BLU TEMPO YLO
IFR 3°C / 2°C 280º 8kt >10km Light Showers Rain 3.00mm precipitation Vertical Visibility of 0ft.
Broken Clouds 700ft
1005 Temporary: YLO ETNW 080920Z 28008KT 9999 -SHRA SCT006 BKN007 03/02 Q1005 GRN BLU TEMPO YLO
MVFR 3°C / 2°C 280º 8kt >10km Light Showers Rain 3.00mm precipitation Vertical Visibility of 0ft.
Broken Clouds 1000ft
1005 Temporary: YLO ETNW 080850Z 28008KT 9999 -SHRA SCT004 BKN010 03/02 Q1005 GRN BLU TEMPO YLO
IFR 3°C / 2°C 270º 9kt 6000m Light Showers Rain 3.00mm precipitation Vertical Visibility of 0ft.
Broken Clouds 600ft
1005 Temporary: YLO ETNW 080820Z 27009KT 6000 -SHRA SCT004 BKN006 03/02 Q1005 YLO BLU TEMPO YLO
IFR 2°C / 2°C 260º 9kt 4500m Light Showers Rain 3.00mm precipitation Vertical Visibility of 0ft.
Broken Clouds 1400ft
Broken Clouds 3000ft
1005 Temporary: YLO ETNW 080720Z 26009KT 4500 -SHRA BKN006 BKN014 BKN030 02/02 Q1005 YLO BLU TEMPO YLO
IFR 3°C / 2°C 250º 12kt 7000m Light Showers Rain 3.00mm precipitation Vertical Visibility of 0ft.
Broken Clouds 1200ft
Broken Clouds 3000ft
1005 Temporary: YLO ETNW 080650Z 25012KT 7000 -SHRA BKN008 BKN012 BKN030 03/02 Q1005 GRN BLU TEMPO YLO
IFR 3°C / 2°C 250º 12kt >10km Light Showers Rain 3.00mm precipitation Vertical Visibility of 0ft.
Broken Clouds 1200ft
Broken Clouds 3000ft
1005 Temporary: YLO ETNW 080620Z 25012KT 9999 -SHRA BKN008 BKN012 BKN030 03/02 Q1005 GRN BLU TEMPO YLO
IFR 3°C / 2°C 250º 14kt >10km - Broken Clouds 800ft
Broken Clouds 3000ft
1005 Temporary: YLO ETNW 080542Z 25014KT 9999 BKN008 BKN030 03/02 Q1005 GRN BLU TEMPO YLO
MVFR 3°C / 2°C 240º 13kt >10km - Scattered Clouds 900ft
Broken Clouds 3000ft
1005 Temporary: YLO ETNW 080520Z 24013KT 9999 SCT009 BKN030 03/02 Q1005 BLU BLU TEMPO YLO
VFR 3°C / 2°C 250º 13kt >10km Light Showers Rain 3.00mm precipitation Vertical Visibility of 0ft.
Broken Clouds 4100ft
1005 - ETNW 080420Z 25013KT 9999 -SHRA FEW011 BKN041 03/02 Q1005 BLU
VFR 3°C / 2°C 250º 12kt >10km - Few Clouds 1400ft
Scattered Clouds 4700ft
Broken Clouds 14000ft
1006 - ETNW 080320Z 25012KT 9999 FEW014 SCT047 BKN140 03/02 Q1006 BLU
VFR 3°C / 2°C 250º 11kt >10km - Few Clouds 1200ft
Broken Clouds 9000ft
Broken Clouds 13000ft
1006 - ETNW 080220Z 25011KT 9999 FEW012 BKN090 BKN130 03/02 Q1006 BLU
MVFR 3°C / 2°C 250º 8kt >10km - Few Clouds 900ft
Scattered Clouds 1400ft
Broken Clouds 2100ft
1007 - ETNW 080120Z 25008KT 9999 FEW009 SCT014 BKN021 03/02 Q1007 WHT
MVFR 3°C / 2°C 240º 9kt >10km - Few Clouds 800ft
Few Clouds 900ft
Broken Clouds 1300ft
1007 - ETNW 080020Z 24009KT 9999 FEW008 FEW009CB BKN013 03/02 Q1007 GRN
MVFR 3°C / 2°C 250º 7kt >10km - Few Clouds 1000ft
Broken Clouds 1400ft
1009 - ETNW 072220Z 25007KT 9999 FEW010 BKN014 03/02 Q1009 GRN

VFR

2°C / 1°C

[Más]
Viento 260º 3kt
Visibilidad >10km
Tiempo -
Nubes Few Clouds 1200ft
Scattered Clouds 11000ft
Presión 1006
Cambiar Temporary: Hail .
Bruto ETNW 081620Z 26003KT 9999 FEW012 SCT110 02/01 Q1006 BLU+BLU TEMPO GRN

VFR

2°C / 2°C

[Más]
Viento 260º 4kt
Visibilidad >10km
Tiempo -
Nubes Few Clouds 1000ft
Broken Clouds 11000ft
Presión 1005
Cambiar Temporary: Hail .
Bruto ETNW 081520Z 26004KT 9999 FEW010 BKN110 02/02 Q1005 BLU BLU TEMPO GRN

VFR

3°C / 2°C

[Más]
Viento 260º 5kt
Visibilidad >10km
Tiempo -
Nubes Scattered Clouds 1000ft
Broken Clouds 11000ft
Presión 1005
Cambiar Temporary: Hail .
Bruto ETNW 081420Z 26005KT 9999 SCT010 BKN110 03/02 Q1005 BLU BLU TEMPO GRN

VFR

3°C / 2°C

[Más]
Viento 260º 6kt
Visibilidad >10km
Tiempo -
Nubes Scattered Clouds 1000ft
Broken Clouds 11000ft
Presión 1005
Cambiar Temporary: Hail .
Bruto ETNW 081400Z 26006KT 9999 SCT010 BKN110 03/02 Q1005 BLU BLU TEMPO GRN

MVFR

3°C / 2°C

[Más]
Viento 280º 6kt
Visibilidad >10km
Tiempo -
Nubes Broken Clouds 1000ft
Broken Clouds 11000ft
Presión 1005
Cambiar Temporary: Hail .
Bruto ETNW 081345Z 28006KT 9999 BKN010 BKN110 03/02 Q1005 GRN BLU TEMPO GRN

VFR

3°C / 2°C

[Más]
Viento 280º 7kt
Visibilidad >10km
Tiempo -
Nubes Scattered Clouds 1200ft
Broken Clouds 11000ft
Presión 1005
Cambiar -
Bruto ETNW 081320Z 28007KT 9999 SCT012 BKN110 03/02 Q1005 BLU BLU

MVFR

4°C / 2°C

[Más]
Viento 260º 7kt
Visibilidad >10km
Tiempo -
Nubes Few Clouds 900ft
Broken Clouds 1200ft
Broken Clouds 10000ft
Presión 1005
Cambiar Temporary: YLO
Bruto ETNW 081220Z 26007KT 9999 FEW009 BKN012 BKN100 04/02 Q1005 GRN BLU TEMPO YLO

MVFR

4°C / 2°C

[Más]
Viento 280º 8kt
Visibilidad >10km
Tiempo -
Nubes Few Clouds 700ft
Broken Clouds 1100ft
Broken Clouds 7000ft
Presión 1005
Cambiar Temporary: YLO
Bruto ETNW 081120Z 28008KT 9999 FEW007 BKN011 BKN070 04/02 Q1005 GRN BLU TEMPO YLO

MVFR

3°C / 2°C

[Más]
Viento 260º 9kt
Visibilidad >10km
Tiempo -
Nubes Few Clouds 700ft
Broken Clouds 1000ft
Presión 1005
Cambiar Temporary: YLO
Bruto ETNW 081020Z 26009KT 9999 FEW007 BKN010 03/02 Q1005 GRN BLU TEMPO YLO

MVFR

3°C / 2°C

[Más]
Viento 260º 8kt
Visibilidad >10km
Tiempo -
Nubes Few Clouds 700ft
Broken Clouds 1000ft
Presión 1005
Cambiar Temporary: YLO
Bruto ETNW 081015Z 26008KT 9999 FEW007 BKN010 03/02 Q1005 GRN BLU TEMPO YLO

IFR

3°C / 2°C

[Más]
Viento 280º 8kt
Visibilidad >10km
Tiempo Light Showers Rain 3.00mm precipitation
Nubes Vertical Visibility of 0ft.
Broken Clouds 700ft
Presión 1005
Cambiar Temporary: YLO
Bruto ETNW 080920Z 28008KT 9999 -SHRA SCT006 BKN007 03/02 Q1005 GRN BLU TEMPO YLO

MVFR

3°C / 2°C

[Más]
Viento 280º 8kt
Visibilidad >10km
Tiempo Light Showers Rain 3.00mm precipitation
Nubes Vertical Visibility of 0ft.
Broken Clouds 1000ft
Presión 1005
Cambiar Temporary: YLO
Bruto ETNW 080850Z 28008KT 9999 -SHRA SCT004 BKN010 03/02 Q1005 GRN BLU TEMPO YLO

IFR

3°C / 2°C

[Más]
Viento 270º 9kt
Visibilidad 6000m
Tiempo Light Showers Rain 3.00mm precipitation
Nubes Vertical Visibility of 0ft.
Broken Clouds 600ft
Presión 1005
Cambiar Temporary: YLO
Bruto ETNW 080820Z 27009KT 6000 -SHRA SCT004 BKN006 03/02 Q1005 YLO BLU TEMPO YLO

IFR

2°C / 2°C

[Más]
Viento 260º 9kt
Visibilidad 4500m
Tiempo Light Showers Rain 3.00mm precipitation
Nubes Vertical Visibility of 0ft.
Broken Clouds 1400ft
Broken Clouds 3000ft
Presión 1005
Cambiar Temporary: YLO
Bruto ETNW 080720Z 26009KT 4500 -SHRA BKN006 BKN014 BKN030 02/02 Q1005 YLO BLU TEMPO YLO

IFR

3°C / 2°C

[Más]
Viento 250º 12kt
Visibilidad 7000m
Tiempo Light Showers Rain 3.00mm precipitation
Nubes Vertical Visibility of 0ft.
Broken Clouds 1200ft
Broken Clouds 3000ft
Presión 1005
Cambiar Temporary: YLO
Bruto ETNW 080650Z 25012KT 7000 -SHRA BKN008 BKN012 BKN030 03/02 Q1005 GRN BLU TEMPO YLO

IFR

3°C / 2°C

[Más]
Viento 250º 12kt
Visibilidad >10km
Tiempo Light Showers Rain 3.00mm precipitation
Nubes Vertical Visibility of 0ft.
Broken Clouds 1200ft
Broken Clouds 3000ft
Presión 1005
Cambiar Temporary: YLO
Bruto ETNW 080620Z 25012KT 9999 -SHRA BKN008 BKN012 BKN030 03/02 Q1005 GRN BLU TEMPO YLO

IFR

3°C / 2°C

[Más]
Viento 250º 14kt
Visibilidad >10km
Tiempo -
Nubes Broken Clouds 800ft
Broken Clouds 3000ft
Presión 1005
Cambiar Temporary: YLO
Bruto ETNW 080542Z 25014KT 9999 BKN008 BKN030 03/02 Q1005 GRN BLU TEMPO YLO

MVFR

3°C / 2°C

[Más]
Viento 240º 13kt
Visibilidad >10km
Tiempo -
Nubes Scattered Clouds 900ft
Broken Clouds 3000ft
Presión 1005
Cambiar Temporary: YLO
Bruto ETNW 080520Z 24013KT 9999 SCT009 BKN030 03/02 Q1005 BLU BLU TEMPO YLO

VFR

3°C / 2°C

[Más]
Viento 250º 13kt
Visibilidad >10km
Tiempo Light Showers Rain 3.00mm precipitation
Nubes Vertical Visibility of 0ft.
Broken Clouds 4100ft
Presión 1005
Cambiar -
Bruto ETNW 080420Z 25013KT 9999 -SHRA FEW011 BKN041 03/02 Q1005 BLU

VFR

3°C / 2°C

[Más]
Viento 250º 12kt
Visibilidad >10km
Tiempo -
Nubes Few Clouds 1400ft
Scattered Clouds 4700ft
Broken Clouds 14000ft
Presión 1006
Cambiar -
Bruto ETNW 080320Z 25012KT 9999 FEW014 SCT047 BKN140 03/02 Q1006 BLU

VFR

3°C / 2°C

[Más]
Viento 250º 11kt
Visibilidad >10km
Tiempo -
Nubes Few Clouds 1200ft
Broken Clouds 9000ft
Broken Clouds 13000ft
Presión 1006
Cambiar -
Bruto ETNW 080220Z 25011KT 9999 FEW012 BKN090 BKN130 03/02 Q1006 BLU

MVFR

3°C / 2°C

[Más]
Viento 250º 8kt
Visibilidad >10km
Tiempo -
Nubes Few Clouds 900ft
Scattered Clouds 1400ft
Broken Clouds 2100ft
Presión 1007
Cambiar -
Bruto ETNW 080120Z 25008KT 9999 FEW009 SCT014 BKN021 03/02 Q1007 WHT

MVFR

3°C / 2°C

[Más]
Viento 240º 9kt
Visibilidad >10km
Tiempo -
Nubes Few Clouds 800ft
Few Clouds 900ft
Broken Clouds 1300ft
Presión 1007
Cambiar -
Bruto ETNW 080020Z 24009KT 9999 FEW008 FEW009CB BKN013 03/02 Q1007 GRN

MVFR

3°C / 2°C

[Más]
Viento 250º 7kt
Visibilidad >10km
Tiempo -
Nubes Few Clouds 1000ft
Broken Clouds 1400ft
Presión 1009
Cambiar -
Bruto ETNW 072220Z 25007KT 9999 FEW010 BKN014 03/02 Q1009 GRN

TAF a Bordenau (ETNW)

From till


From till Wind 250º 10kt. Visibility 10km or more. Scattered Clouds 1000ft. Broken Clouds 4000ft.
With 30% probability, from till Wind 270º 12kt. Visibility 3000m. Showers Rain Showers Snow . Broken Clouds 500ft. Broken Clouds 2000ft.
Temporarly from till Wind 240º 8kt. Visibility 10km or more. Broken Clouds 1000ft. Broken Clouds 2500ft.
With 30% probability, from till Wind 270º 10kt. Visibility 997.791m. Showers Snow . Broken Clouds 500ft. Broken Clouds 2000ft.
Temporarly from till Wind variable 3kt. Visibility 498.895m. freezing Fog . Obscured Sky.

Bruto: TAF AMD ETNW 081349Z 0813/0912 25010KT 9999 NSW SCT010 BKN040 TEMPO 0813/0821 24008KT 9999 NSW BKN010 BKN025 PROB30 0813/0815 27012KT 3000 SHRASN BKN005 BKN020CB PROB30 0815/0821 27010KT 1000 SHSN BKN005 BKN020CB TEMPO 0821/0909 VRB03KT 0500 FZFG VV001 BY ETGL

rainNOW: Previsión de lluvia para Bordenau y alrededores (25km de radio)

0.0 mm
0.0 mm
0.0 mm
0.0 mm
0.0 mm
0.0 mm
0.0 mm
0.0 mm
0.0 mm
0.0 mm
0.0 mm
0.0 mm

Radar para Bordenau

llovizna
Leve
Moderado
Fuerte
Muy fuerte
Granizo

El marcador del lugar se coloca en Bordenau. Esta animación muestra el radar de precipitaciones hasta la última hora, así como 2h de previsión. Las lloviznas o las nevadas ligeras pueden ser invisibles para el radar. La intensidad de la precipitación está codificada por colores, que van del azul claro al naranja.
Copyright 2022 Deutscher Wetterdienst / meteoblue.

Imágenes actuales de satélite y lluvia para Bordenau, Alemania

El marcador del lugar se coloca en Bordenau. [Más]

La imagen de satélite en tiempo real se aprovecha de la combinación de bandas de la luz visible y de la luz infrarroja. Cómo se pueden detectar cambios de temperaturas a través de la banda infrarrojo, la imagen no aparece oscura de noche. No obstante, la niebla y las nubes bajas son apenas visibles en las imágenes de infrarrojo ya que las diferencias de temperaturas entre el suelo y la niebla son muy pequeñas, por eso, son casi invisibles durante la noche. Las imágenes de satélite del Meteosat (Europa) son actualizados en tiempo real cada 5 minutos. Las imágenes del GOES-16/GOES-17 (América del Norte y América del Sur) y Himawari (Asia) son actualizadas cada 10 minutos.

La precipitación se estima a partir del radar y de los satélites. Las estimaciones de la precipitación desde los satélites son menos precisas durante la noche que durante el día. Las cruces naranjas identifican lugares donde se detectaron relámpagos (en Europa).

Copyright 2022 EUMETSAT / meteoblue. Datos de relámpagos proporcionados por nowcast.

Volver al principio